sensor_id;sensor_type;location;lat;lon;timestamp;temperature;humidity
55219;DHT22;41088;44.012;20.902;2022-08-21T00:16:02;588.80;2432.00
55219;DHT22;41088;44.012;20.902;2022-08-21T00:18:38;564.10;2432.00
55219;DHT22;41088;44.012;20.902;2022-08-21T00:21:04;564.10;2432.00
55219;DHT22;41088;44.012;20.902;2022-08-21T00:23:32;564.10;2432.00
55219;DHT22;41088;44.012;20.902;2022-08-21T00:25:58;564.10;2432.00
55219;DHT22;41088;44.012;20.902;2022-08-21T00:28:24;564.10;2432.00
55219;DHT22;41088;44.012;20.902;2022-08-21T00:31:16;564.10;2432.00
55219;DHT22;41088;44.012;20.902;2022-08-21T00:33:42;564.10;2432.00
55219;DHT22;41088;44.012;20.902;2022-08-21T00:36:08;564.00;2432.00
55219;DHT22;41088;44.012;20.902;2022-08-21T00:41:13;564.00;2432.00
55219;DHT22;41088;44.012;20.902;2022-08-21T00:48:03;564.00;2432.00
55219;DHT22;41088;44.012;20.902;2022-08-21T00:54:56;564.00;2432.00
55219;DHT22;41088;44.012;20.902;2022-08-21T00:58:29;564.10;2432.00
55219;DHT22;41088;44.012;20.902;2022-08-21T01:04:51;564.00;2432.00
55219;DHT22;41088;44.012;20.902;2022-08-21T01:07:26;564.00;2432.00
55219;DHT22;41088;44.012;20.902;2022-08-21T01:10:03;564.00;2432.00
55219;DHT22;41088;44.012;20.902;2022-08-21T01:12:33;564.00;2432.00
55219;DHT22;41088;44.012;20.902;2022-08-21T01:15:08;564.00;2432.00
55219;DHT22;41088;44.012;20.902;2022-08-21T01:17:35;564.00;2432.00
55219;DHT22;41088;44.012;20.902;2022-08-21T01:20:07;564.00;2432.00
55219;DHT22;41088;44.012;20.902;2022-08-21T01:22:45;564.00;2432.00
55219;DHT22;41088;44.012;20.902;2022-08-21T01:28:46;564.00;2432.00
55219;DHT22;41088;44.012;20.902;2022-08-21T01:31:20;563.90;2432.00
55219;DHT22;41088;44.012;20.902;2022-08-21T01:33:48;564.00;2432.00
55219;DHT22;41088;44.012;20.902;2022-08-21T01:36:14;564.00;2432.00
55219;DHT22;41088;44.012;20.902;2022-08-21T01:38:40;564.00;2432.00
55219;DHT22;41088;44.012;20.902;2022-08-21T01:41:06;563.90;2432.00
55219;DHT22;41088;44.012;20.902;2022-08-21T01:43:42;564.00;2432.00
55219;DHT22;41088;44.012;20.902;2022-08-21T01:46:12;564.00;2432.00
55219;DHT22;41088;44.012;20.902;2022-08-21T01:48:49;564.00;2432.00
55219;DHT22;41088;44.012;20.902;2022-08-21T01:51:15;564.00;2432.00
55219;DHT22;41088;44.012;20.902;2022-08-21T01:53:41;564.00;2432.00
55219;DHT22;41088;44.012;20.902;2022-08-21T01:56:10;564.00;2432.00
55219;DHT22;41088;44.012;20.902;2022-08-21T01:58:36;564.00;2432.00
55219;DHT22;41088;44.012;20.902;2022-08-21T02:01:03;564.00;2432.00
55219;DHT22;41088;44.012;20.902;2022-08-21T02:03:29;563.90;2432.00
55219;DHT22;41088;44.012;20.902;2022-08-21T02:05:56;563.90;2432.00
55219;DHT22;41088;44.012;20.902;2022-08-21T02:08:26;563.90;2432.00
55219;DHT22;41088;44.012;20.902;2022-08-21T02:10:54;563.90;2432.00
55219;DHT22;41088;44.012;20.902;2022-08-21T02:13:20;563.90;2432.00
55219;DHT22;41088;44.012;20.902;2022-08-21T02:15:46;563.90;2432.00
55219;DHT22;41088;44.012;20.902;2022-08-21T02:18:12;563.90;2432.00
55219;DHT22;41088;44.012;20.902;2022-08-21T02:20:46;563.90;2432.00
55219;DHT22;41088;44.012;20.902;2022-08-21T02:26:41;564.00;2432.00
55219;DHT22;41088;44.012;20.902;2022-08-21T02:29:08;563.90;2432.00
55219;DHT22;41088;44.012;20.902;2022-08-21T02:31:34;563.90;2432.00
55219;DHT22;41088;44.012;20.902;2022-08-21T02:34:09;564.00;2432.00
55219;DHT22;41088;44.012;20.902;2022-08-21T02:37:09;563.90;2432.00
55219;DHT22;41088;44.012;20.902;2022-08-21T02:40:22;563.90;2432.00
55219;DHT22;41088;44.012;20.902;2022-08-21T02:43:00;563.90;2432.00
55219;DHT22;41088;44.012;20.902;2022-08-21T02:45:34;563.90;2432.00
55219;DHT22;41088;44.012;20.902;2022-08-21T02:53:27;564.00;2432.00
55219;DHT22;41088;44.012;20.902;2022-08-21T02:55:54;564.00;2432.00
55219;DHT22;41088;44.012;20.902;2022-08-21T02:58:31;563.90;2432.00
55219;DHT22;41088;44.012;20.902;2022-08-21T03:01:00;563.90;2432.00
55219;DHT22;41088;44.012;20.902;2022-08-21T03:03:27;563.90;2432.00
55219;DHT22;41088;44.012;20.902;2022-08-21T03:05:54;563.90;2432.00
55219;DHT22;41088;44.012;20.902;2022-08-21T03:08:21;564.00;2432.00
55219;DHT22;41088;44.012;20.902;2022-08-21T03:10:51;563.90;2432.00
55219;DHT22;41088;44.012;20.902;2022-08-21T03:13:19;563.90;2432.00
55219;DHT22;41088;44.012;20.902;2022-08-21T03:15:49;563.90;2432.00
55219;DHT22;41088;44.012;20.902;2022-08-21T03:18:16;563.90;2432.00
55219;DHT22;41088;44.012;20.902;2022-08-21T03:20:43;563.90;2432.00
55219;DHT22;41088;44.012;20.902;2022-08-21T03:23:12;563.90;2432.00
55219;DHT22;41088;44.012;20.902;2022-08-21T03:25:38;563.90;2432.00
55219;DHT22;41088;44.012;20.902;2022-08-21T03:28:07;563.90;2432.00
55219;DHT22;41088;44.012;20.902;2022-08-21T03:30:35;563.90;2432.00
55219;DHT22;41088;44.012;20.902;2022-08-21T03:33:08;563.90;2432.00
55219;DHT22;41088;44.012;20.902;2022-08-21T03:35:42;564.00;2432.00
55219;DHT22;41088;44.012;20.902;2022-08-21T03:38:12;563.90;2432.00
55219;DHT22;41088;44.012;20.902;2022-08-21T03:40:44;564.00;2432.00
55219;DHT22;41088;44.012;20.902;2022-08-21T03:43:38;563.90;2432.00
55219;DHT22;41088;44.012;20.902;2022-08-21T03:51:54;563.90;2432.00
55219;DHT22;41088;44.012;20.902;2022-08-21T03:54:28;564.00;2432.00
55219;DHT22;41088;44.012;20.902;2022-08-21T04:05:45;564.00;2432.00
55219;DHT22;41088;44.012;20.902;2022-08-21T04:11:18;564.00;2432.00
55219;DHT22;41088;44.012;20.902;2022-08-21T04:13:44;563.80;2432.00
55219;DHT22;41088;44.012;20.902;2022-08-21T04:16:10;563.80;2432.00
55219;DHT22;41088;44.012;20.902;2022-08-21T04:34:30;564.00;2432.00
55219;DHT22;41088;44.012;20.902;2022-08-21T04:36:55;588.80;2432.00
55219;DHT22;41088;44.012;20.902;2022-08-21T04:39:21;588.90;2432.00
55219;DHT22;41088;44.012;20.902;2022-08-21T04:41:51;588.90;2432.00
55219;DHT22;41088;44.012;20.902;2022-08-21T04:44:20;588.90;2432.00
55219;DHT22;41088;44.012;20.902;2022-08-21T04:46:49;588.90;2432.00
55219;DHT22;41088;44.012;20.902;2022-08-21T04:49:21;588.80;2432.00
55219;DHT22;41088;44.012;20.902;2022-08-21T04:52:00;588.90;2432.00
55219;DHT22;41088;44.012;20.902;2022-08-21T04:54:32;589.10;2432.00
55219;DHT22;41088;44.012;20.902;2022-08-21T05:02:35;589.60;2432.00
55219;DHT22;41088;44.012;20.902;2022-08-21T05:05:15;614.40;2432.00
55219;DHT22;41088;44.012;20.902;2022-08-21T05:14:20;640.10;2432.00
55219;DHT22;41088;44.012;20.902;2022-08-21T05:16:59;615.30;2432.00
55219;DHT22;41088;44.012;20.902;2022-08-21T05:33:59;614.80;2432.00
55219;DHT22;41088;44.012;20.902;2022-08-21T05:36:31;614.70;2432.00
55219;DHT22;41088;44.012;20.902;2022-08-21T05:42:10;614.40;2432.00
55219;DHT22;41088;44.012;20.902;2022-08-21T05:44:36;589.70;2432.00
55219;DHT22;41088;44.012;20.902;2022-08-21T05:47:09;589.60;2432.00
55219;DHT22;41088;44.012;20.902;2022-08-21T05:53:09;589.50;2432.00
55219;DHT22;41088;44.012;20.902;2022-08-21T06:05:28;589.20;2432.00
55219;DHT22;41088;44.012;20.902;2022-08-21T06:07:54;589.10;2432.00
55219;DHT22;41088;44.012;20.902;2022-08-21T06:10:35;589.00;2432.00
55219;DHT22;41088;44.012;20.902;2022-08-21T06:13:09;589.00;2432.00
55219;DHT22;41088;44.012;20.902;2022-08-21T06:22:23;589.00;2432.00
55219;DHT22;41088;44.012;20.902;2022-08-21T06:24:49;589.10;2432.00
55219;DHT22;41088;44.012;20.902;2022-08-21T06:27:15;589.20;2432.00
55219;DHT22;41088;44.012;20.902;2022-08-21T06:29:43;589.20;2432.00
55219;DHT22;41088;44.012;20.902;2022-08-21T06:32:13;589.30;2432.00
55219;DHT22;41088;44.012;20.902;2022-08-21T06:34:40;589.20;2432.00
55219;DHT22;41088;44.012;20.902;2022-08-21T06:37:07;589.20;2432.00
55219;DHT22;41088;44.012;20.902;2022-08-21T06:39:34;589.30;2432.00
55219;DHT22;41088;44.012;20.902;2022-08-21T06:42:02;589.30;2432.00
55219;DHT22;41088;44.012;20.902;2022-08-21T06:44:29;589.30;2432.00
55219;DHT22;41088;44.012;20.902;2022-08-21T06:46:56;589.40;2432.00
55219;DHT22;41088;44.012;20.902;2022-08-21T06:49:26;589.40;2432.00
55219;DHT22;41088;44.012;20.902;2022-08-21T06:51:55;589.40;2432.00
55219;DHT22;41088;44.012;20.902;2022-08-21T06:54:21;589.40;2432.00
55219;DHT22;41088;44.012;20.902;2022-08-21T06:56:47;589.50;2432.00
55219;DHT22;41088;44.012;20.902;2022-08-21T06:59:13;589.60;2432.00
55219;DHT22;41088;44.012;20.902;2022-08-21T07:01:39;589.60;2432.00
55219;DHT22;41088;44.012;20.902;2022-08-21T07:04:05;589.60;2432.00
55219;DHT22;41088;44.012;20.902;2022-08-21T07:06:31;589.70;2432.00
55219;DHT22;41088;44.012;20.902;2022-08-21T07:08:58;589.60;2432.00
55219;DHT22;41088;44.012;20.902;2022-08-21T07:11:24;614.40;2432.00
55219;DHT22;41088;44.012;20.902;2022-08-21T07:13:51;614.40;2432.00
55219;DHT22;41088;44.012;20.902;2022-08-21T07:16:22;614.40;2432.00
55219;DHT22;41088;44.012;20.902;2022-08-21T07:18:49;614.40;2432.00
55219;DHT22;41088;44.012;20.902;2022-08-21T07:21:16;614.40;2432.00
55219;DHT22;41088;44.012;20.902;2022-08-21T07:23:45;614.40;2432.00
55219;DHT22;41088;44.012;20.902;2022-08-21T07:26:12;589.70;2432.00
55219;DHT22;41088;44.012;20.902;2022-08-21T07:28:38;589.70;2432.00
55219;DHT22;41088;44.012;20.902;2022-08-21T07:31:05;589.70;2432.00
55219;DHT22;41088;44.012;20.902;2022-08-21T07:33:33;589.70;2432.00
55219;DHT22;41088;44.012;20.902;2022-08-21T07:36:00;589.70;2432.00
55219;DHT22;41088;44.012;20.902;2022-08-21T07:38:26;614.40;2432.00
55219;DHT22;41088;44.012;20.902;2022-08-21T07:40:55;614.40;2432.00
55219;DHT22;41088;44.012;20.902;2022-08-21T07:43:22;614.60;2432.00
55219;DHT22;41088;44.012;20.902;2022-08-21T07:45:48;614.70;2432.00
55219;DHT22;41088;44.012;20.902;2022-08-21T07:50:43;615.00;2432.00
55219;DHT22;41088;44.012;20.902;2022-08-21T07:53:09;614.90;2432.00
55219;DHT22;41088;44.012;20.902;2022-08-21T07:55:36;615.00;2432.00
55219;DHT22;41088;44.012;20.902;2022-08-21T07:58:03;615.30;2432.00
55219;DHT22;41088;44.012;20.902;2022-08-21T08:00:29;640.10;2432.00
55219;DHT22;41088;44.012;20.902;2022-08-21T08:05:28;640.40;2432.00
55219;DHT22;41088;44.012;20.902;2022-08-21T08:07:54;640.60;2432.00
55219;DHT22;41088;44.012;20.902;2022-08-21T09:09:51;717.10;2432.00
55219;DHT22;41088;44.012;20.902;2022-08-21T09:20:14;691.50;2432.00
55219;DHT22;41088;44.012;20.902;2022-08-21T09:23:05;691.20;2432.00
55219;DHT22;41088;44.012;20.902;2022-08-21T09:26:07;691.70;2432.00
55219;DHT22;41088;44.012;20.902;2022-08-21T09:28:37;716.80;2432.00
55219;DHT22;41088;44.012;20.902;2022-08-21T09:31:07;716.90;2432.00
55219;DHT22;41088;44.012;20.902;2022-08-21T09:33:35;716.90;2432.00
55219;DHT22;41088;44.012;20.902;2022-08-21T09:36:02;717.00;2432.00
55219;DHT22;41088;44.012;20.902;2022-08-21T09:38:34;717.10;2432.00
